Time;durP1;ratioP1;P1;durP2;ratioP2;P2;SDS_P1;SDS_P2;PMS_P1;PMS_P2;Temp;Humidity;BMP_temperature;BMP_pressure;BME280_temperature;BME280_humidity;BME280_pressure;Samples;Min_cycle;Max_cycle;Signal;HPM_P1;HPM_P2
2022/10/06 00:01:05;;;;;;;4.43;1.00;;;;;;;18.52;53.37;102007.50;5032668;28;20407;-67
2022/10/06 00:03:31;;;;;;;8.07;1.60;;;;;;;18.50;53.60;102014.91;5032568;28;20053;-66
2022/10/06 00:06:00;;;;;;;5.85;1.45;;;;;;;18.48;53.75;102018.75;5050451;28;20064;-66
2022/10/06 00:08:28;;;;;;;5.57;1.10;;;;;;;18.47;53.77;102027.91;5052556;28;20075;-66
2022/10/06 00:10:56;;;;;;;5.32;1.23;;;;;;;18.43;53.39;102028.19;5052383;28;20045;-66
2022/10/06 00:13:23;;;;;;;3.50;1.38;;;;;;;18.40;53.68;102036.59;5052189;28;20091;-67
2022/10/06 00:15:51;;;;;;;3.80;1.27;;;;;;;18.37;53.84;102039.59;5052347;28;20037;-67
2022/10/06 00:18:18;;;;;;;4.25;0.98;;;;;;;18.38;53.75;102043.19;5052243;28;20060;-67
2022/10/06 00:20:53;;;;;;;6.15;1.63;;;;;;;18.35;53.63;102051.59;5052251;28;20465;-67
2022/10/06 00:23:19;;;;;;;5.70;2.03;;;;;;;18.34;53.79;102050.72;5052038;28;20099;-67
2022/10/06 00:25:47;;;;;;;8.48;1.40;;;;;;;18.33;54.08;102068.03;5052288;28;20040;-67
2022/10/06 00:28:15;;;;;;;3.25;1.30;;;;;;;18.32;53.93;102060.00;5051778;28;20059;-67
2022/10/06 00:30:43;;;;;;;6.35;1.60;;;;;;;18.30;53.88;102059.28;5052165;28;20079;-67
2022/10/06 00:33:15;;;;;;;4.80;1.50;;;;;;;18.27;53.75;102071.28;5050740;28;20037;-67
2022/10/06 00:35:42;;;;;;;4.28;1.50;;;;;;;18.24;53.78;102076.13;5049693;28;20115;-67
2022/10/06 00:38:14;;;;;;;6.25;1.23;;;;;;;18.18;53.81;102082.94;5052155;28;20040;-67
2022/10/06 00:40:46;;;;;;;5.90;1.60;;;;;;;18.14;53.97;102086.91;5050375;28;20048;-67
2022/10/06 00:43:55;;;;;;;3.83;1.65;;;;;;;18.09;53.88;102090.00;5051911;28;20087;-67
2022/10/06 00:46:26;;;;;;;7.53;1.90;;;;;;;18.06;53.91;102098.41;5052528;28;20044;-66
2022/10/06 00:49:12;;;;;;;6.38;1.40;;;;;;;18.01;54.03;102103.38;5052129;28;20491;-67
2022/10/06 00:51:44;;;;;;;12.48;1.85;;;;;;;17.98;53.95;102100.03;5052317;28;20510;-67
2022/10/06 00:54:15;;;;;;;8.88;1.65;;;;;;;17.95;53.94;102108.44;5053764;28;20021;-67
2022/10/06 00:56:43;;;;;;;8.13;2.15;;;;;;;17.93;54.07;102113.13;5054318;28;20056;-66
2022/10/06 00:59:14;;;;;;;9.95;1.70;;;;;;;17.89;54.10;102117.97;5054270;28;20091;-66
2022/10/06 01:01:46;;;;;;;10.40;1.90;;;;;;;17.87;53.77;102111.78;5053292;28;20041;-66
2022/10/06 01:04:18;;;;;;;6.25;1.27;;;;;;;17.86;54.18;102120.06;5053663;28;20596;-66
2022/10/06 01:06:52;;;;;;;6.68;1.70;;;;;;;17.84;53.92;102122.91;5052793;28;20049;-66
2022/10/06 01:09:20;;;;;;;6.55;1.55;;;;;;;17.83;53.79;102123.88;5052243;28;20059;-67
2022/10/06 01:11:50;;;;;;;7.95;1.80;;;;;;;17.82;53.79;102132.16;5052305;28;20171;-66
2022/10/06 01:14:20;;;;;;;8.80;1.83;;;;;;;17.82;53.87;102134.88;5052421;28;20099;-67
2022/10/06 01:16:52;;;;;;;4.43;1.50;;;;;;;17.81;53.80;102142.16;5052046;28;20037;-67
2022/10/06 01:19:37;;;;;;;9.07;2.35;;;;;;;17.81;53.70;102130.41;5051773;28;20098;-67
2022/10/06 01:22:07;;;;;;;6.22;1.83;;;;;;;17.81;53.42;102150.31;5050417;28;20049;-66
2022/10/06 01:36:08;;;;;;;7.80;1.55;;;;;;;17.65;54.11;102166.06;5033473;28;20033;-67
2022/10/06 01:38:35;;;;;;;8.93;2.15;;;;;;;17.63;54.27;102168.91;5033051;28;20097;-66
2022/10/06 01:41:03;;;;;;;4.90;1.40;;;;;;;17.63;54.32;102179.78;5031699;28;20443;-67
2022/10/06 01:43:29;;;;;;;6.68;1.80;;;;;;;17.65;54.33;102180.53;5035512;28;20060;-67
2022/10/06 01:45:57;;;;;;;6.57;1.50;;;;;;;17.66;54.10;102184.09;5031491;28;20038;-67
2022/10/06 01:48:25;;;;;;;5.07;1.52;;;;;;;17.65;54.04;102180.53;5034211;28;20037;-67
2022/10/06 01:50:55;;;;;;;5.28;1.77;;;;;;;17.67;54.32;102185.88;5032235;28;20495;-67
2022/10/06 01:53:22;;;;;;;9.77;2.00;;;;;;;17.67;53.91;102186.75;5034371;28;20492;-67
2022/10/06 01:55:49;;;;;;;7.57;1.42;;;;;;;17.66;53.95;102186.81;5055777;28;20052;-66
2022/10/06 01:58:21;;;;;;;5.18;1.50;;;;;;;17.64;54.31;102192.38;5051764;28;20041;-68
2022/10/06 02:00:49;;;;;;;10.73;2.00;;;;;;;17.61;54.01;102200.78;5051250;28;20041;-66
2022/10/06 02:03:16;;;;;;;8.50;2.08;;;;;;;17.58;53.98;102192.88;5055827;28;20094;-66
2022/10/06 02:05:45;;;;;;;7.65;2.03;;;;;;;17.55;54.11;102198.53;5055766;28;20041;-66
2022/10/06 02:08:12;;;;;;;6.75;1.50;;;;;;;17.54;54.12;102204.09;5053631;28;20049;-66
2022/10/06 02:10:40;;;;;;;8.23;1.80;;;;;;;17.51;53.95;102202.50;5053901;28;20037;-69
2022/10/06 02:13:13;;;;;;;5.47;2.08;;;;;;;17.48;53.90;102213.59;5054855;28;20056;-66
2022/10/06 02:15:44;;;;;;;8.77;2.47;;;;;;;17.45;53.94;102220.13;5053876;28;20132;-67
2022/10/06 02:18:11;;;;;;;13.15;1.85;;;;;;;17.44;54.25;102217.53;5053662;28;20068;-67
2022/10/06 02:20:39;;;;;;;5.85;1.40;;;;;;;17.41;53.90;102224.06;5054946;28;20057;-67
2022/10/06 02:23:05;;;;;;;5.00;1.52;;;;;;;17.39;54.22;102225.19;5053404;28;20119;-66
2022/10/06 02:25:33;;;;;;;6.38;1.98;;;;;;;17.36;54.38;102228.13;5054929;28;20099;-67
2022/10/06 02:28:00;;;;;;;8.68;1.90;;;;;;;17.34;53.94;102241.84;5054658;28;20056;-66
2022/10/06 02:30:26;;;;;;;8.60;1.80;;;;;;;17.30;54.25;102237.63;5052930;28;20045;-67
2022/10/06 02:32:54;;;;;;;7.85;1.73;;;;;;;17.29;54.13;102246.75;5054097;28;20107;-67
2022/10/06 02:35:20;;;;;;;5.97;2.08;;;;;;;17.28;54.08;102252.31;5054223;28;20055;-67
2022/10/06 02:37:47;;;;;;;5.40;1.48;;;;;;;17.26;54.27;102251.56;5056326;28;20090;-67
2022/10/06 02:40:17;;;;;;;8.57;2.33;;;;;;;17.24;54.20;102254.38;5054775;28;20037;-66
2022/10/06 02:42:44;;;;;;;9.95;1.77;;;;;;;17.22;54.34;102256.34;5054680;28;20057;-67
2022/10/06 02:45:18;;;;;;;8.70;2.10;;;;;;;17.19;54.33;102258.44;5054788;28;20037;-67
2022/10/06 02:47:45;;;;;;;7.43;1.88;;;;;;;17.15;54.46;102269.53;5055319;28;20041;-67
2022/10/06 02:50:12;;;;;;;7.32;1.70;;;;;;;17.13;53.95;102263.34;5055403;28;20052;-66
2022/10/06 02:52:41;;;;;;;7.20;2.00;;;;;;;17.10;54.08;102271.72;5056161;28;20056;-66
2022/10/06 02:55:14;;;;;;;5.93;1.80;;;;;;;17.07;54.04;102282.78;5058392;28;20030;-66
2022/10/06 02:57:40;;;;;;;8.48;2.15;;;;;;;17.05;54.01;102284.75;5054709;28;20045;-66
2022/10/06 03:00:09;;;;;;;8.25;2.00;;;;;;;17.05;54.03;102286.59;5054600;28;20043;-66
2022/10/06 03:02:36;;;;;;;12.77;3.00;;;;;;;17.04;54.26;102296.59;5053394;28;20101;-67
2022/10/06 03:05:08;;;;;;;8.75;1.92;;;;;;;17.02;54.36;102300.41;5054966;28;20033;-67
2022/10/06 03:07:34;;;;;;;11.13;1.85;;;;;;;17.00;54.20;102300.53;5054263;28;20479;-66
2022/10/06 03:10:01;;;;;;;5.68;1.73;;;;;;;16.98;54.40;102318.78;5052519;28;20036;-67
2022/10/06 03:12:28;;;;;;;10.55;1.95;;;;;;;16.95;54.40;102316.28;5051871;28;20045;-67
2022/10/06 03:14:59;;;;;;;11.52;2.20;;;;;;;16.91;54.02;102313.91;5054281;28;20402;-67
2022/10/06 03:17:25;;;;;;;10.45;2.60;;;;;;;16.90;54.20;102320.31;5052579;28;20037;-67
2022/10/06 03:19:56;;;;;;;8.05;2.13;;;;;;;16.90;54.11;102318.47;5052618;28;20116;-67
2022/10/06 03:22:23;;;;;;;9.30;2.28;;;;;;;16.88;54.02;102330.44;5052617;28;20065;-67
2022/10/06 03:24:57;;;;;;;7.93;2.65;;;;;;;16.85;54.34;102334.22;5052797;28;20044;-67
2022/10/06 03:27:24;;;;;;;6.13;1.67;;;;;;;16.83;54.02;102330.78;5053839;28;20048;-67
2022/10/06 03:29:55;;;;;;;10.10;2.50;;;;;;;16.82;53.99;102323.59;5052725;28;20076;-67
2022/10/06 03:32:23;;;;;;;7.88;2.00;;;;;;;16.80;54.11;102333.72;5052595;28;20145;-66
2022/10/06 03:34:54;;;;;;;7.00;1.90;;;;;;;16.79;54.19;102342.81;5052832;28;20305;-66
2022/10/06 03:37:21;;;;;;;12.73;2.10;;;;;;;16.77;54.32;102344.78;5052647;28;20047;-67
2022/10/06 03:39:48;;;;;;;8.52;2.25;;;;;;;16.76;54.36;102354.78;5052279;28;20075;-68
2022/10/06 03:42:15;;;;;;;5.10;2.17;;;;;;;16.73;54.41;102357.72;5052395;28;20067;-66
2022/10/06 03:44:45;;;;;;;11.30;2.28;;;;;;;16.71;54.30;102361.50;5053893;28;20399;-67
2022/10/06 03:47:12;;;;;;;8.95;2.00;;;;;;;16.69;54.34;102366.19;5052227;28;20051;-67
2022/10/06 03:49:43;;;;;;;5.75;1.88;;;;;;;16.66;54.10;102366.41;5052403;28;20055;-66
2022/10/06 03:52:11;;;;;;;12.10;2.42;;;;;;;16.64;54.38;102365.63;5052226;28;20411;-66
2022/10/06 03:54:39;;;;;;;12.15;3.08;;;;;;;16.61;54.13;102369.41;5052391;28;20045;-67
2022/10/06 03:57:05;;;;;;;8.35;2.30;;;;;;;16.58;54.55;102369.66;5053483;28;20075;-66
2022/10/06 03:59:33;;;;;;;7.85;1.98;;;;;;;16.58;54.34;102379.63;5053373;28;20041;-67
2022/10/06 04:02:04;;;;;;;9.68;2.50;;;;;;;16.57;54.43;102383.31;5053359;28;20049;-66
2022/10/06 04:04:48;;;;;;;13.68;3.30;;;;;;;16.56;54.62;102381.59;5052476;28;20099;-66
2022/10/06 04:07:15;;;;;;;11.68;2.67;;;;;;;16.54;54.71;102387.13;5052841;28;20545;-66
2022/10/06 04:09:44;;;;;;;8.50;1.58;;;;;;;16.52;54.59;102394.50;5053041;28;20049;-66
2022/10/06 04:12:11;;;;;;;8.98;2.42;;;;;;;16.50;54.53;102408.16;5052780;28;20451;-66
2022/10/06 04:14:39;;;;;;;10.48;2.50;;;;;;;16.48;54.70;102411.97;5052815;28;20051;-67
2022/10/06 04:17:07;;;;;;;11.73;2.15;;;;;;;16.46;54.68;102411.19;5052703;28;20049;-66
2022/10/06 04:19:36;;;;;;;8.50;1.83;;;;;;;16.43;54.38;102416.84;5052930;28;20136;-67
2022/10/06 04:22:02;;;;;;;7.15;1.73;;;;;;;16.39;54.57;102413.47;5052633;28;20125;-66
2022/10/06 04:24:32;;;;;;;9.60;2.92;;;;;;;16.37;54.62;102422.69;5052032;28;20041;-67
2022/10/06 04:27:26;;;;;;;10.02;2.03;;;;;;;16.36;54.89;102434.53;5058200;28;20129;-67
2022/10/06 04:29:53;;;;;;;11.55;3.40;;;;;;;16.35;54.55;102427.34;5033323;28;20149;-67
2022/10/06 04:32:20;;;;;;;10.30;2.20;;;;;;;16.33;54.72;102430.16;5031910;28;20045;-67
2022/10/06 04:34:48;;;;;;;11.77;2.72;;;;;;;16.34;54.73;102433.72;5033471;28;20526;-66
2022/10/06 04:37:15;;;;;;;10.93;2.30;;;;;;;16.33;54.93;102438.28;5047080;28;20099;-67
2022/10/06 04:39:42;;;;;;;9.90;2.40;;;;;;;16.31;54.68;102439.38;5051865;28;20091;-67
2022/10/06 04:42:11;;;;;;;9.18;2.10;;;;;;;16.26;54.75;102442.41;5052872;28;20041;-67
2022/10/06 04:44:38;;;;;;;5.53;2.13;;;;;;;16.23;54.40;102445.31;5051823;28;20037;-67
2022/10/06 04:47:05;;;;;;;8.23;2.28;;;;;;;16.22;54.73;102454.44;5035578;28;20045;-68
2022/10/06 04:49:34;;;;;;;11.82;2.15;;;;;;;16.19;54.79;102447.38;5052050;28;20048;-67
2022/10/06 04:52:02;;;;;;;7.53;1.95;;;;;;;16.18;54.92;102445.66;5052085;28;20048;-68
2022/10/06 04:54:36;;;;;;;10.68;2.80;;;;;;;16.19;54.77;102462.78;5052108;28;20091;-66
2022/10/06 04:57:04;;;;;;;8.73;2.20;;;;;;;16.19;54.77;102458.22;5052165;28;20048;-66
2022/10/06 05:02:17;;;;;;;8.82;2.72;;;;;;;16.19;54.63;102468.19;5051830;28;20048;-67
2022/10/06 05:04:50;;;;;;;9.13;2.22;;;;;;;16.17;54.77;102476.44;5052064;28;20095;-66
2022/10/06 05:07:19;;;;;;;11.00;2.85;;;;;;;16.18;55.19;102472.75;5056620;28;20045;-67
2022/10/06 05:09:45;;;;;;;12.23;2.58;;;;;;;16.19;54.56;102476.34;5052106;28;20072;-67
2022/10/06 05:12:12;;;;;;;9.85;2.25;;;;;;;16.15;54.88;102483.81;5050177;28;20106;-67
2022/10/06 05:14:45;;;;;;;9.80;2.35;;;;;;;16.14;54.86;102492.03;5052004;28;20041;-67
2022/10/06 05:17:12;;;;;;;9.07;2.60;;;;;;;16.12;54.95;102497.56;5051177;28;20099;-67
2022/10/06 05:19:39;;;;;;;9.75;2.22;;;;;;;16.11;54.80;102506.66;5051608;28;20079;-67
2022/10/06 05:22:06;;;;;;;9.35;2.33;;;;;;;16.11;54.49;102505.81;5034758;28;20491;-66
2022/10/06 05:25:00;;;;;;;11.27;2.50;;;;;;;16.07;55.02;102505.16;5051205;28;20132;-67
2022/10/06 05:27:26;;;;;;;11.20;2.30;;;;;;;16.07;54.71;102509.69;5052432;28;20037;-66
2022/10/06 05:29:53;;;;;;;7.45;2.20;;;;;;;16.05;54.73;102515.22;5052415;28;20049;-66
2022/10/06 05:32:19;;;;;;;11.32;2.42;;;;;;;16.03;55.03;102519.00;5051939;28;20391;-67
2022/10/06 05:34:48;;;;;;;7.90;2.40;;;;;;;16.01;54.59;102527.25;5051826;28;20037;-67
2022/10/06 05:37:14;;;;;;;9.38;3.05;;;;;;;15.98;54.96;102527.44;5055542;28;20045;-66
2022/10/06 05:39:42;;;;;;;12.55;2.72;;;;;;;15.94;54.65;102525.91;5056530;28;20044;-67
2022/10/06 05:42:09;;;;;;;10.55;2.40;;;;;;;15.90;54.49;102524.38;5057304;28;20041;-67
2022/10/06 05:44:37;;;;;;;11.55;2.58;;;;;;;15.87;54.56;102525.47;5056024;28;20040;-66
2022/10/06 05:47:08;;;;;;;10.23;2.30;;;;;;;15.85;54.68;102542.78;5055615;28;20047;-66
2022/10/06 05:49:40;;;;;;;10.80;2.55;;;;;;;15.82;54.55;102546.56;5058474;28;20077;-66
2022/10/06 05:52:07;;;;;;;6.05;2.33;;;;;;;15.78;54.89;102547.75;5056510;28;20045;-66
2022/10/06 05:54:39;;;;;;;11.68;2.38;;;;;;;15.76;55.15;102551.53;5056851;28;20051;-67
2022/10/06 05:57:07;;;;;;;8.05;2.67;;;;;;;15.77;54.64;102550.56;5059808;28;20049;-66
2022/10/06 05:59:34;;;;;;;10.02;2.40;;;;;;;15.77;54.66;102564.09;5056450;28;20060;-66
2022/10/06 06:02:03;;;;;;;11.88;2.58;;;;;;;15.76;54.97;102565.94;5053897;28;20102;-66
2022/10/06 06:04:39;;;;;;;18.20;2.97;;;;;;;15.74;54.85;102573.28;5053670;28;20037;-65
2022/10/06 06:07:07;;;;;;;8.98;2.30;;;;;;;15.74;55.02;102583.25;5055619;28;20045;-66
2022/10/06 06:09:35;;;;;;;10.48;2.40;;;;;;;15.74;55.04;102577.84;5053847;28;20047;-65
2022/10/06 06:12:03;;;;;;;12.68;2.72;;;;;;;15.74;54.99;102580.56;5053332;28;20091;-66
2022/10/06 06:17:35;;;;;;;9.65;2.63;;;;;;;15.70;54.86;102588.00;5053391;28;20041;-66
2022/10/06 06:20:04;;;;;;;6.50;2.50;;;;;;;15.67;54.82;102595.47;5053337;28;20064;-66
2022/10/06 06:22:30;;;;;;;14.13;3.50;;;;;;;15.65;55.01;102595.56;5056152;28;20434;-66
2022/10/06 06:24:58;;;;;;;15.63;3.28;;;;;;;15.65;55.09;102600.97;5033800;28;20041;-66
2022/10/06 06:27:25;;;;;;;11.02;2.88;;;;;;;15.66;54.90;102599.16;5033537;28;20107;-69
2022/10/06 06:29:51;;;;;;;14.23;2.70;;;;;;;15.65;55.28;102608.25;5033321;28;20065;-69
2022/10/06 06:32:18;;;;;;;13.50;3.25;;;;;;;15.65;55.24;102608.25;5034109;28;20084;-69
2022/10/06 06:34:46;;;;;;;15.80;3.42;;;;;;;15.64;54.88;102598.38;5051745;28;20069;-69
2022/10/06 06:37:13;;;;;;;13.43;3.35;;;;;;;15.64;55.44;102610.06;5053813;28;20103;-67
2022/10/06 06:39:43;;;;;;;16.58;3.00;;;;;;;15.63;55.24;102613.75;5052583;28;20135;-68
2022/10/06 06:42:10;;;;;;;12.20;3.08;;;;;;;15.65;54.96;102624.50;5052587;28;20415;-68
2022/10/06 06:44:41;;;;;;;16.25;3.63;;;;;;;15.65;55.28;102619.06;5054033;28;20056;-68
2022/10/06 06:47:26;;;;;;;15.00;4.15;;;;;;;15.66;55.24;102628.94;5051394;28;20041;-69
2022/10/06 06:49:54;;;;;;;13.02;3.45;;;;;;;15.65;55.16;102627.19;5051953;28;20527;-68
2022/10/06 06:52:24;;;;;;;15.27;2.78;;;;;;;15.66;55.16;102634.34;5052231;28;20037;-68
2022/10/06 06:54:56;;;;;;;10.45;3.30;;;;;;;15.66;55.48;102632.50;5052488;28;20101;-68
2022/10/06 06:57:23;;;;;;;11.65;2.75;;;;;;;15.70;55.47;102630.47;5068570;28;20499;-68
2022/10/06 06:59:51;;;;;;;14.88;3.65;;;;;;;15.76;55.47;102641.78;5052150;28;20098;-68
2022/10/06 07:02:18;;;;;;;13.95;3.42;;;;;;;15.83;55.64;102642.25;5051986;28;20064;-68
2022/10/06 07:04:49;;;;;;;17.75;3.60;;;;;;;15.92;55.52;102647.09;5052359;28;20120;-69
2022/10/06 07:07:19;;;;;;;12.80;3.28;;;;;;;16.01;55.93;102646.47;5052178;28;20055;-68
2022/10/06 07:09:46;;;;;;;11.52;3.08;;;;;;;16.14;55.64;102651.97;5052120;28;20136;-69
2022/10/06 07:12:14;;;;;;;11.70;2.60;;;;;;;16.29;55.60;102655.50;5051751;28;20091;-68
2022/10/06 07:26:18;;;;;;;16.67;3.90;;;;;;;17.05;54.97;102685.63;5051839;28;20041;-69
2022/10/06 07:28:45;;;;;;;7.10;2.63;;;;;;;17.19;54.87;102679.28;5051490;28;20044;-68
2022/10/06 07:31:17;;;;;;;13.60;3.60;;;;;;;17.33;54.54;102687.31;5051682;28;20118;-69
2022/10/06 07:33:49;;;;;;;12.63;3.10;;;;;;;17.45;54.61;102703.59;5051624;28;20135;-68
2022/10/06 07:36:17;;;;;;;8.75;2.55;;;;;;;17.61;54.53;102695.25;5051548;28;20049;-68
2022/10/06 07:38:46;;;;;;;12.45;3.15;;;;;;;17.78;54.26;102705.81;5051565;28;20041;-69
2022/10/06 07:41:13;;;;;;;12.50;3.75;;;;;;;17.95;53.76;102712.75;5051432;28;20049;-69
2022/10/06 07:43:59;;;;;;;9.38;2.65;;;;;;;18.08;53.98;102713.59;5051546;28;20053;-69
2022/10/06 07:46:32;;;;;;;10.93;3.08;;;;;;;18.21;53.27;102724.44;5051295;28;20037;-69
2022/10/06 07:49:03;;;;;;;13.63;3.38;;;;;;;18.33;53.55;102728.13;5051366;28;20048;-68
2022/10/06 07:51:30;;;;;;;11.55;3.03;;;;;;;18.44;52.93;102730.91;5051152;28;20581;-68
2022/10/06 07:54:00;;;;;;;10.45;2.85;;;;;;;18.54;52.75;102725.66;5051235;28;20629;-68
2022/10/06 07:56:36;;;;;;;12.68;4.00;;;;;;;18.63;52.45;102738.63;5051511;28;20563;-68
2022/10/06 07:59:02;;;;;;;15.88;2.92;;;;;;;18.70;52.69;102737.19;5051269;28;20502;-68
2022/10/06 08:01:29;;;;;;;14.50;3.00;;;;;;;18.72;52.43;102737.94;5052405;28;20041;-68
2022/10/06 08:03:58;;;;;;;12.60;3.00;;;;;;;18.77;52.23;102740.31;5052449;28;20040;-68
2022/10/06 08:06:24;;;;;;;14.48;3.55;;;;;;;18.81;51.92;102747.25;5052272;28;20438;-69
2022/10/06 08:08:55;;;;;;;14.07;2.78;;;;;;;18.87;51.74;102752.22;5052135;28;20045;-68
2022/10/06 08:11:22;;;;;;;11.95;2.70;;;;;;;18.95;51.85;102752.50;5052323;28;20075;-68
2022/10/06 08:13:52;;;;;;;8.02;2.50;;;;;;;19.01;51.56;102752.03;5052608;28;20044;-69
2022/10/06 08:16:21;;;;;;;11.93;3.00;;;;;;;19.05;51.13;102748.97;5052037;28;20044;-68
2022/10/06 08:18:52;;;;;;;11.27;2.80;;;;;;;19.17;51.33;102759.91;5051932;28;20056;-68
2022/10/06 08:21:30;;;;;;;8.70;2.42;;;;;;;19.28;51.30;102754.50;5052061;28;20037;-68
2022/10/06 08:24:00;;;;;;;9.70;2.97;;;;;;;19.36;50.86;102758.38;5052010;28;20561;-68
2022/10/06 08:26:28;;;;;;;14.98;3.60;;;;;;;19.47;50.66;102756.66;5051984;28;20048;-68
2022/10/06 08:29:01;;;;;;;14.25;3.13;;;;;;;19.59;50.94;102764.78;5051700;28;20106;-69
2022/10/06 08:31:29;;;;;;;8.45;2.83;;;;;;;19.68;50.44;102774.97;5051724;28;20059;-68
2022/10/06 08:34:00;;;;;;;15.43;3.08;;;;;;;19.79;50.59;102770.50;5051852;28;20041;-69
2022/10/06 08:36:27;;;;;;;13.10;2.63;;;;;;;19.86;50.24;102769.03;5051550;28;20048;-69
2022/10/06 08:38:59;;;;;;;12.70;3.13;;;;;;;19.92;50.22;102772.13;5051786;28;20079;-67
2022/10/06 08:41:33;;;;;;;14.65;2.80;;;;;;;20.05;50.08;102788.38;5051497;28;20040;-65
2022/10/06 08:44:14;;;;;;;16.33;2.85;;;;;;;20.21;49.85;102788.03;5051712;28;20045;-65
2022/10/06 08:47:01;;;;;;;9.80;2.85;;;;;;;20.38;49.73;102787.53;5047753;28;20048;-65
2022/10/06 08:49:37;;;;;;;12.73;2.85;;;;;;;20.55;49.75;102799.81;5051358;28;20091;-66
2022/10/06 08:52:37;;;;;;;16.30;3.03;;;;;;;20.66;49.00;102796.19;5051176;28;20047;-66
2022/10/06 08:55:31;;;;;;;11.10;3.10;;;;;;;20.74;48.86;102805.47;5051559;28;20053;-67
2022/10/06 08:58:13;;;;;;;10.90;2.78;;;;;;;20.80;48.77;102799.50;5050800;28;20411;-67
2022/10/06 09:00:43;;;;;;;10.98;2.83;;;;;;;20.90;48.61;102799.63;5050343;28;20045;-67
2022/10/06 09:03:22;;;;;;;8.77;2.20;;;;;;;20.98;48.08;102799.00;5031106;28;20095;-66
2022/10/06 09:05:59;;;;;;;11.68;2.30;;;;;;;21.02;47.82;102805.94;5031220;28;20060;-66
2022/10/06 09:08:52;;;;;;;13.02;2.90;;;;;;;21.06;47.82;102808.28;5031105;28;20049;-66
2022/10/06 09:11:45;;;;;;;10.30;2.67;;;;;;;21.15;47.51;102820.28;5031032;28;20125;-66
2022/10/06 09:14:37;;;;;;;14.95;2.83;;;;;;;21.26;47.77;102820.28;5031206;28;20487;-66
2022/10/06 09:17:12;;;;;;;8.30;2.45;;;;;;;21.36;47.51;102820.34;5030878;28;20091;-66
2022/10/06 09:19:47;;;;;;;11.50;2.58;;;;;;;21.45;47.19;102828.63;5031107;28;20087;-66
2022/10/06 09:22:18;;;;;;;9.75;2.20;;;;;;;21.53;47.23;102834.31;5031468;28;20050;-66
2022/10/06 09:24:56;;;;;;;14.20;2.67;;;;;;;21.59;47.00;102840.28;5031322;28;20041;-63
2022/10/06 09:27:29;;;;;;;8.95;2.35;;;;;;;21.68;46.89;102842.22;5030867;28;20037;-66
2022/10/06 09:29:55;;;;;;;9.93;2.20;;;;;;;21.73;46.66;102843.53;5030721;28;20416;-66
2022/10/06 09:32:25;;;;;;;10.43;2.20;;;;;;;21.81;46.26;102842.88;5030926;28;20434;-66
2022/10/06 09:34:58;;;;;;;9.45;2.60;;;;;;;21.88;46.08;102842.19;5031433;28;20446;-67
2022/10/06 09:37:26;;;;;;;9.95;2.30;;;;;;;21.93;45.78;102852.75;5031540;28;20570;-66
2022/10/06 09:39:53;;;;;;;14.00;2.85;;;;;;;21.88;45.32;102846.81;5029679;28;20057;-66
2022/10/06 09:42:28;;;;;;;9.52;2.70;;;;;;;21.86;45.48;102848.81;5030602;28;20193;-65
2022/10/06 09:45:14;;;;;;;11.48;2.40;;;;;;;21.85;45.11;102845.22;5031073;28;20087;-67
2022/10/06 09:47:45;;;;;;;7.03;2.13;;;;;;;21.88;44.92;102846.81;5036464;28;20061;-68
2022/10/06 09:50:15;;;;;;;11.52;2.78;;;;;;;21.91;44.89;102849.28;5050688;28;20053;-68
2022/10/06 09:52:56;;;;;;;8.15;1.90;;;;;;;21.94;44.76;102856.34;5050543;28;20045;-67
2022/10/06 09:55:27;;;;;;;12.77;2.42;;;;;;;21.98;44.76;102847.72;5050799;28;20083;-68
2022/10/06 09:57:56;;;;;;;10.25;2.47;;;;;;;22.04;45.00;102849.09;5044426;28;20037;-68
2022/10/06 10:00:28;;;;;;;9.02;2.28;;;;;;;22.07;44.87;102848.81;5050632;28;20480;-68
2022/10/06 10:02:57;;;;;;;9.60;2.72;;;;;;;22.06;44.42;102856.16;5036161;28;20044;-68
2022/10/06 10:05:34;;;;;;;9.13;2.40;;;;;;;22.00;44.15;102848.47;5050274;28;20044;-69
2022/10/06 10:08:13;;;;;;;6.57;2.15;;;;;;;21.96;44.24;102849.75;5050807;28;20041;-68
2022/10/06 10:10:40;;;;;;;9.80;2.20;;;;;;;21.95;44.12;102850.75;5050374;28;20469;-68
2022/10/06 10:13:17;;;;;;;11.38;1.85;;;;;;;21.97;44.03;102843.25;5042760;28;20447;-68
2022/10/06 10:15:59;;;;;;;10.57;2.17;;;;;;;21.98;43.86;102850.47;5031181;28;20049;-68
2022/10/06 10:18:30;;;;;;;12.60;2.40;;;;;;;22.07;43.98;102855.16;5030447;28;20081;-67
2022/10/06 10:21:03;;;;;;;9.00;2.20;;;;;;;22.15;43.82;102852.63;5030692;28;20056;-68
2022/10/06 10:23:39;;;;;;;9.35;2.40;;;;;;;22.26;43.44;102862.59;5045465;28;20331;-67
2022/10/06 10:26:53;;;;;;;3.58;1.40;;;;;;;22.35;43.26;102853.59;5054543;28;20095;-68
2022/10/06 10:29:38;;;;;;;7.40;1.88;;;;;;;22.44;43.66;102861.00;5054302;28;20094;-68
2022/10/06 10:32:34;;;;;;;10.02;2.80;;;;;;;22.55;43.12;102861.91;5052325;28;20052;-68
2022/10/06 10:35:12;;;;;;;7.03;2.22;;;;;;;22.63;43.44;102854.72;5033171;28;20061;-68
2022/10/06 10:37:55;;;;;;;11.15;2.55;;;;;;;22.74;42.91;102861.97;5034245;28;20067;-68
2022/10/06 10:40:31;;;;;;;9.65;2.35;;;;;;;22.90;43.30;102854.09;5034325;28;20050;-67
2022/10/06 10:43:21;;;;;;;10.88;2.00;;;;;;;23.06;42.94;102853.59;5040273;28;20094;-69
2022/10/06 10:45:51;;;;;;;13.40;2.35;;;;;;;23.13;42.72;102863.84;5054067;28;20547;-68
2022/10/06 10:48:29;;;;;;;7.55;2.20;;;;;;;23.14;42.14;102857.34;5033732;28;20041;-68
2022/10/06 10:51:26;;;;;;;5.03;1.65;;;;;;;23.12;42.04;102855.75;5033739;28;20049;-68
2022/10/06 10:54:12;;;;;;;10.23;2.05;;;;;;;23.23;42.18;102863.84;5048819;28;20495;-69
2022/10/06 10:56:39;;;;;;;10.88;2.13;;;;;;;23.39;42.31;102866.88;5053753;28;20119;-68
2022/10/06 10:59:24;;;;;;;9.85;2.25;;;;;;;23.59;41.98;102859.56;5053696;28;20045;-68
2022/10/06 11:02:04;;;;;;;4.47;1.60;;;;;;;23.76;41.48;102863.44;5051517;28;20037;-67
2022/10/06 11:04:42;;;;;;;7.50;1.85;;;;;;;23.78;41.21;102858.66;5033653;28;20049;-68
2022/10/06 11:07:19;;;;;;;7.72;2.13;;;;;;;23.85;41.31;102857.09;5034208;28;20092;-68
2022/10/06 11:09:52;;;;;;;6.60;1.80;;;;;;;23.94;40.93;102866.31;5033479;28;20103;-68
2022/10/06 11:12:25;;;;;;;6.80;1.73;;;;;;;23.93;40.35;102864.59;5034437;28;20041;-68
2022/10/06 11:15:17;;;;;;;12.82;2.08;;;;;;;23.83;39.98;102869.22;5034968;28;20042;-68
2022/10/06 11:17:45;;;;;;;6.88;1.88;;;;;;;23.66;40.18;102868.06;5035445;28;20172;-67
2022/10/06 11:20:30;;;;;;;4.75;1.48;;;;;;;23.51;39.53;102875.84;5035988;28;20033;-67
2022/10/06 11:23:10;;;;;;;6.35;2.08;;;;;;;23.33;39.69;102866.59;5051943;28;20040;-68
2022/10/06 11:25:51;;;;;;;8.20;1.98;;;;;;;23.12;39.50;102872.22;5053385;28;20543;-71
2022/10/06 11:28:38;;;;;;;7.40;2.03;;;;;;;22.93;39.80;102867.53;5052748;28;20041;-73
2022/10/06 11:31:16;;;;;;;8.75;1.85;;;;;;;22.86;39.75;102863.63;5053933;28;20049;-71
2022/10/06 11:33:52;;;;;;;7.38;2.25;;;;;;;22.88;39.88;102868.94;5053078;28;20056;-72
2022/10/06 11:36:53;;;;;;;7.00;1.77;;;;;;;22.94;40.22;102873.88;5051580;28;20049;-72
2022/10/06 11:39:26;;;;;;;6.05;1.88;;;;;;;23.03;40.01;102876.63;5052685;28;20102;-71
2022/10/06 11:42:05;;;;;;;7.97;1.95;;;;;;;23.13;39.83;102882.16;5051113;28;20041;-71
2022/10/06 11:44:41;;;;;;;11.57;2.47;;;;;;;23.13;39.48;102876.69;5052762;28;20749;-72
2022/10/06 11:47:15;;;;;;;10.75;2.50;;;;;;;23.12;39.33;102872.22;5052238;28;20499;-71
2022/10/06 11:49:50;;;;;;;7.95;1.90;;;;;;;23.17;39.48;102871.78;5052469;28;20041;-71
2022/10/06 11:52:16;;;;;;;;;;;;;;;23.23;39.79;102872.06;5052591;28;20442;-71
2022/10/06 11:54:46;;;;;;;5.82;1.80;;;;;;;23.30;39.52;102864.16;5052530;28;19947;-72
2022/10/06 11:57:22;;;;;;;6.30;1.90;;;;;;;23.26;39.11;102860.81;5052041;28;20094;-72
2022/10/06 12:00:16;;;;;;;8.77;2.33;;;;;;;23.30;39.19;102861.41;5052278;28;20120;-72
2022/10/06 12:02:45;;;;;;;5.30;2.10;;;;;;;23.35;38.92;102865.44;5051721;28;20446;-72
2022/10/06 12:05:16;;;;;;;5.45;1.70;;;;;;;23.45;39.06;102865.44;5052333;28;20037;-72
2022/10/06 12:08:11;;;;;;;5.28;1.30;;;;;;;23.58;38.97;102860.56;5051820;28;20041;-72
2022/10/06 12:10:47;;;;;;;9.70;1.95;;;;;;;23.65;38.86;102847.13;5052140;28;20041;-72
2022/10/06 12:13:21;;;;;;;8.32;2.30;;;;;;;23.71;38.60;102852.03;5051830;28;20044;-72